Time;durP1;ratioP1;P1;durP2;ratioP2;P2;SDS_P1;SDS_P2;PMS_P1;PMS_P2;Temp;Humidity;BMP_temperature;BMP_pressure;BME280_temperature;BME280_humidity;BME280_pressure;Samples;Min_cycle;Max_cycle;Signal;HPM_P1;HPM_P2
2023/09/18 11:32:40;;;;;;;15.98;14.20;;;;;;;;;;5350024;23;20088;-88
2023/09/18 11:35:10;;;;;;;19.65;17.55;;;;;;;;;;5013650;28;20511;-88
2023/09/18 11:37:35;;;;;;;22.05;14.73;;;;;;;;;;5013881;28;20029;-88
2023/09/18 11:40:01;;;;;;;20.40;14.90;;;;;;;;;;5012573;28;20022;-89
2023/09/18 11:42:28;;;;;;;21.30;16.38;;;;;;;;;;5013929;28;20069;-89
2023/09/18 16:28:31;;;;;;;16.83;8.10;;;;;;;;;;5019882;28;20046;-88
2023/09/18 16:31:04;;;;;;;13.90;7.78;;;;;;;;;;5016659;28;20100;-85
2023/09/18 16:33:29;;;;;;;12.23;7.57;;;;;;;;;;5017074;28;20033;-86
2023/09/18 16:35:55;;;;;;;14.70;8.25;;;;;;;;;;5016758;28;20551;-88
2023/09/18 16:38:20;;;;;;;20.48;8.25;;;;;;;;;;5016805;28;20053;-86
2023/09/18 16:40:46;;;;;;;21.33;8.70;;;;;;;;;;5016593;28;20026;-84
2023/09/18 16:43:11;;;;;;;22.55;9.70;;;;;;;;;;5016743;28;20058;-87
2023/09/18 16:45:37;;;;;;;21.08;9.35;;;;;;;;;;5016578;28;20034;-86
2023/09/18 16:48:04;;;;;;;28.17;9.98;;;;;;;;;;5016681;28;20022;-86
2023/09/18 16:50:29;;;;;;;25.80;10.68;;;;;;;;;;5016622;28;20034;-85
2023/09/18 16:52:55;;;;;;;21.45;9.73;;;;;;;;;;5016495;28;20100;-88
2023/09/18 16:55:20;;;;;;;19.10;9.10;;;;;;;;;;5016333;28;20030;-91
2023/09/18 16:57:47;;;;;;;19.02;8.20;;;;;;;;;;5016566;28;20492;-85
2023/09/18 17:00:12;;;;;;;18.95;9.05;;;;;;;;;;5016428;28;20492;-87
2023/09/18 17:02:38;;;;;;;20.45;8.77;;;;;;;;;;5016106;28;20115;-84
2023/09/18 17:05:04;;;;;;;21.23;9.43;;;;;;;;;;5016419;28;20022;-85
2023/09/18 17:07:29;;;;;;;18.45;9.20;;;;;;;;;;5016467;28;20375;-87
2023/09/18 17:09:55;;;;;;;19.98;9.60;;;;;;;;;;5016295;28;20029;-86
2023/09/18 17:12:20;;;;;;;19.85;8.73;;;;;;;;;;5016260;28;20026;-85
2023/09/18 17:14:46;;;;;;;26.00;10.32;;;;;;;;;;5016030;28;20488;-86
2023/09/18 17:17:11;;;;;;;19.77;8.88;;;;;;;;;;5016056;28;20033;-83
2023/09/18 17:19:37;;;;;;;19.38;10.00;;;;;;;;;;5013251;28;20030;-88
2023/09/18 17:22:03;;;;;;;18.65;10.00;;;;;;;;;;5015616;28;20476;-86
2023/09/18 17:24:34;;;;;;;26.00;10.55;;;;;;;;;;5015581;28;20022;-83
2023/09/18 17:26:59;;;;;;;18.48;10.77;;;;;;;;;;5015746;28;20492;-84
2023/09/18 17:29:25;;;;;;;16.55;9.10;;;;;;;;;;5015397;28;20033;-84
2023/09/18 17:31:50;;;;;;;13.70;8.32;;;;;;;;;;5015487;28;20096;-83
2023/09/18 17:34:15;;;;;;;13.88;7.90;;;;;;;;;;5015743;28;20022;-84
2023/09/18 17:36:42;;;;;;;20.55;9.50;;;;;;;;;;5015507;28;20477;-84
2023/09/18 17:39:09;;;;;;;16.52;9.60;;;;;;;;;;5015400;28;20095;-85
2023/09/18 17:41:35;;;;;;;23.10;11.02;;;;;;;;;;5015310;28;20034;-84
2023/09/18 17:44:02;;;;;;;21.17;11.40;;;;;;;;;;5015394;28;20026;-85
2023/09/18 17:46:27;;;;;;;20.13;12.90;;;;;;;;;;5015296;28;20469;-84
2023/09/18 17:48:53;;;;;;;26.25;13.27;;;;;;;;;;5015280;28;20040;-84
2023/09/18 17:51:18;;;;;;;24.48;12.95;;;;;;;;;;5015248;28;20057;-85
2023/09/18 17:53:44;;;;;;;28.90;13.57;;;;;;;;;;5013625;28;20053;-84
2023/09/18 17:56:09;;;;;;;20.52;13.43;;;;;;;;;;5013826;28;20057;-85
2023/09/18 17:58:35;;;;;;;20.13;12.48;;;;;;;;;;5015136;28;20021;-83
2023/09/18 18:01:00;;;;;;;21.00;13.95;;;;;;;;;;5015343;28;20046;-84
2023/09/18 18:03:26;;;;;;;20.27;12.90;;;;;;;;;;5014874;28;20040;-83
2023/09/18 18:05:51;;;;;;;17.50;11.68;;;;;;;;;;5014988;28;20022;-83
2023/09/18 18:08:18;;;;;;;16.77;10.80;;;;;;;;;;5014748;28;20026;-83
2023/09/18 18:10:45;;;;;;;18.05;10.73;;;;;;;;;;5015104;28;20022;-83
2023/09/18 18:13:11;;;;;;;22.02;12.50;;;;;;;;;;5014850;28;20552;-83
2023/09/18 18:15:39;;;;;;;15.27;10.32;;;;;;;;;;5014692;28;20113;-85
2023/09/18 18:18:10;;;;;;;17.95;11.45;;;;;;;;;;5014913;28;20022;-84
2023/09/18 18:20:36;;;;;;;16.08;10.48;;;;;;;;;;5014651;28;20026;-84
2023/09/18 18:23:04;;;;;;;18.42;10.68;;;;;;;;;;5014570;28;20036;-84
2023/09/18 18:25:30;;;;;;;16.70;10.75;;;;;;;;;;5014545;28;20030;-83
2023/09/18 18:27:56;;;;;;;19.02;10.02;;;;;;;;;;5014468;28;20050;-85
2023/09/18 18:30:21;;;;;;;17.48;10.00;;;;;;;;;;5014504;28;20567;-84
2023/09/18 18:32:47;;;;;;;20.25;9.98;;;;;;;;;;5014406;28;20022;-85
2023/09/18 18:35:17;;;;;;;21.05;10.55;;;;;;;;;;5014893;28;20025;-84
2023/09/18 18:37:44;;;;;;;17.10;9.27;;;;;;;;;;5014314;28;20538;-85
2023/09/18 18:40:13;;;;;;;17.67;10.38;;;;;;;;;;5014423;28;20029;-85
2023/09/18 18:42:38;;;;;;;18.42;10.10;;;;;;;;;;5014280;28;20026;-85
2023/09/18 18:45:05;;;;;;;16.40;9.85;;;;;;;;;;5014299;28;20033;-84
2023/09/18 18:47:31;;;;;;;18.17;9.98;;;;;;;;;;5012817;28;20030;-85
2023/09/18 18:49:56;;;;;;;13.02;8.63;;;;;;;;;;5014049;28;20392;-85
2023/09/18 18:52:22;;;;;;;18.50;9.00;;;;;;;;;;5014095;28;20026;-84
2023/09/18 18:54:48;;;;;;;14.73;8.95;;;;;;;;;;5014350;28;20057;-83
2023/09/18 18:57:14;;;;;;;14.32;10.38;;;;;;;;;;5014114;28;20492;-82
2023/09/18 18:59:41;;;;;;;16.35;10.30;;;;;;;;;;5014043;28;20021;-85
2023/09/18 19:02:07;;;;;;;18.90;9.18;;;;;;;;;;5013957;28;20030;-86
2023/09/18 19:04:34;;;;;;;20.40;10.40;;;;;;;;;;5013780;28;20022;-83
2023/09/18 19:07:00;;;;;;;18.33;9.23;;;;;;;;;;5014044;28;20018;-85
2023/09/18 19:09:26;;;;;;;14.60;9.30;;;;;;;;;;5013949;28;20026;-86
2023/09/18 19:11:52;;;;;;;20.67;10.20;;;;;;;;;;5013741;28;20107;-84
2023/09/18 19:14:17;;;;;;;17.38;9.82;;;;;;;;;;5013708;28;20065;-85
2023/09/18 19:16:43;;;;;;;15.32;9.23;;;;;;;;;;5014020;28;20534;-83
2023/09/18 19:19:08;;;;;;;15.15;9.20;;;;;;;;;;5013434;28;20014;-84
2023/09/18 19:21:34;;;;;;;14.23;8.85;;;;;;;;;;5013562;28;20032;-83
2023/09/18 19:24:00;;;;;;;11.68;8.15;;;;;;;;;;5013592;28;20030;-83
2023/09/18 19:26:26;;;;;;;14.55;8.60;;;;;;;;;;5013868;28;20061;-84
2023/09/18 19:28:51;;;;;;;14.88;9.13;;;;;;;;;;5013228;28;20046;-85
2023/09/18 19:31:21;;;;;;;13.07;8.60;;;;;;;;;;5013769;28;20100;-83
2023/09/18 19:33:47;;;;;;;20.05;8.88;;;;;;;;;;5013533;28;20029;-86
2023/09/18 19:36:13;;;;;;;16.20;8.77;;;;;;;;;;5013496;28;20476;-86
2023/09/18 19:38:38;;;;;;;13.23;8.50;;;;;;;;;;5013745;28;20064;-84
2023/09/18 19:41:04;;;;;;;12.82;8.82;;;;;;;;;;5013610;28;20034;-86
2023/09/18 19:43:30;;;;;;;16.25;9.57;;;;;;;;;;5017484;28;20429;-83
2023/09/18 19:45:56;;;;;;;14.23;9.07;;;;;;;;;;5017430;28;20064;-83
2023/09/18 19:48:21;;;;;;;17.83;9.50;;;;;;;;;;5016273;28;20062;-83
2023/09/18 19:50:49;;;;;;;14.80;10.02;;;;;;;;;;5017674;28;20025;-83
2023/09/18 19:53:14;;;;;;;15.20;9.05;;;;;;;;;;5017280;28;20084;-84
2023/09/18 19:55:40;;;;;;;17.33;9.52;;;;;;;;;;5017414;28;20026;-84
2023/09/18 19:58:05;;;;;;;17.45;9.38;;;;;;;;;;5017339;28;20396;-84
2023/09/18 20:00:31;;;;;;;14.25;9.48;;;;;;;;;;5017278;28;20029;-83
2023/09/18 20:02:57;;;;;;;15.95;8.95;;;;;;;;;;5016891;28;20066;-84
2023/09/18 20:05:23;;;;;;;10.80;8.00;;;;;;;;;;5016024;28;20018;-83
2023/09/18 20:07:50;;;;;;;11.10;7.72;;;;;;;;;;5017453;28;20022;-83
2023/09/18 20:10:16;;;;;;;14.30;8.57;;;;;;;;;;5017109;28;20025;-84
2023/09/18 20:12:43;;;;;;;11.27;7.40;;;;;;;;;;5017079;28;20026;-84
2023/09/18 20:15:09;;;;;;;11.38;8.10;;;;;;;;;;5017244;28;20097;-83
2023/09/18 20:17:35;;;;;;;9.35;7.07;;;;;;;;;;5017154;28;20084;-83
2023/09/18 20:20:01;;;;;;;11.48;6.47;;;;;;;;;;5017454;28;20427;-85
2023/09/18 20:22:26;;;;;;;11.95;6.93;;;;;;;;;;5017026;28;20115;-83
2023/09/18 20:24:52;;;;;;;10.82;6.55;;;;;;;;;;5017110;28;20026;-84
2023/09/18 20:27:18;;;;;;;8.80;6.68;;;;;;;;;;5017101;28;20045;-83
2023/09/18 20:29:44;;;;;;;9.35;6.13;;;;;;;;;;5017110;28;20026;-84
2023/09/18 20:32:09;;;;;;;10.98;5.90;;;;;;;;;;5017099;28;20469;-84
2023/09/18 20:34:35;;;;;;;7.55;4.88;;;;;;;;;;5016885;28;20037;-83
2023/09/18 20:37:00;;;;;;;8.43;5.80;;;;;;;;;;5017078;28;20026;-91
2023/09/18 20:39:26;;;;;;;7.88;5.63;;;;;;;;;;5016688;28;20452;-84
2023/09/18 20:41:52;;;;;;;6.10;5.32;;;;;;;;;;5016946;28;20038;-85
2023/09/18 20:44:17;;;;;;;11.48;6.00;;;;;;;;;;5016904;28;20033;-87
2023/09/18 20:46:43;;;;;;;8.73;5.43;;;;;;;;;;5016531;28;20381;-87
2023/09/18 20:49:08;;;;;;;7.88;5.53;;;;;;;;;;5016534;28;20475;-86
2023/09/18 20:51:34;;;;;;;10.25;5.60;;;;;;;;;;5016780;28;20028;-86
2023/09/18 20:54:00;;;;;;;7.45;5.10;;;;;;;;;;5016651;28;20022;-86
2023/09/18 20:56:26;;;;;;;6.97;5.35;;;;;;;;;;5016805;28;20057;-86
2023/09/18 20:58:56;;;;;;;7.05;4.95;;;;;;;;;;5016385;28;20022;-87
2023/09/18 21:01:22;;;;;;;7.82;4.63;;;;;;;;;;5015207;28;20030;-86
2023/09/18 21:03:47;;;;;;;6.78;4.68;;;;;;;;;;5015034;28;20025;-86
2023/09/18 21:06:14;;;;;;;6.20;4.78;;;;;;;;;;5016390;28;20424;-86
2023/09/18 21:08:40;;;;;;;7.60;4.55;;;;;;;;;;5016293;28;20041;-86
2023/09/18 21:11:05;;;;;;;6.47;4.25;;;;;;;;;;5016276;28;20030;-86
2023/09/18 21:13:31;;;;;;;4.22;3.83;;;;;;;;;;5016026;28;20034;-86
2023/09/18 21:16:02;;;;;;;5.72;4.05;;;;;;;;;;5014818;28;20030;-86
2023/09/18 21:18:31;;;;;;;5.30;3.70;;;;;;;;;;5016125;28;20041;-86
2023/09/18 21:20:57;;;;;;;3.75;2.90;;;;;;;;;;5016214;28;20022;-86
2023/09/18 21:23:23;;;;;;;5.93;3.08;;;;;;;;;;5015882;28;20044;-86
2023/09/18 21:25:52;;;;;;;4.25;2.58;;;;;;;;;;5015988;28;20030;-86
2023/09/18 21:28:18;;;;;;;3.38;2.70;;;;;;;;;;5015685;28;20057;-86
2023/09/18 21:30:43;;;;;;;4.45;2.90;;;;;;;;;;5016150;28;20030;-87
2023/09/18 21:33:09;;;;;;;5.85;3.08;;;;;;;;;;5015830;28;20096;-86
2023/09/18 21:35:35;;;;;;;6.40;2.70;;;;;;;;;;5014542;28;20384;-86
2023/09/18 21:38:02;;;;;;;3.22;2.35;;;;;;;;;;4998443;28;20037;-86
2023/09/18 21:40:29;;;;;;;2.60;2.40;;;;;;;;;;5015698;28;20381;-87
2023/09/18 21:42:56;;;;;;;3.08;2.33;;;;;;;;;;5015503;28;20044;-86
2023/09/18 21:45:21;;;;;;;2.88;2.20;;;;;;;;;;5014353;28;20072;-86
2023/09/18 21:47:50;;;;;;;2.85;2.15;;;;;;;;;;5015625;28;20022;-87
2023/09/18 21:50:16;;;;;;;3.83;2.17;;;;;;;;;;5015717;28;20026;-87
2023/09/18 21:52:42;;;;;;;4.55;2.53;;;;;;;;;;5015267;28;20076;-86
2023/09/18 21:55:07;;;;;;;4.63;2.35;;;;;;;;;;5015418;28;20034;-86
2023/09/18 21:57:33;;;;;;;4.07;2.30;;;;;;;;;;5015265;28;20032;-86
2023/09/18 21:59:58;;;;;;;4.82;2.50;;;;;;;;;;5015551;28;20108;-86
2023/09/18 22:02:24;;;;;;;2.78;2.17;;;;;;;;;;5015113;28;20036;-86
2023/09/18 22:04:50;;;;;;;3.58;2.40;;;;;;;;;;5014697;28;20018;-86
2023/09/18 22:07:16;;;;;;;5.45;2.38;;;;;;;;;;5015360;28;20029;-86
2023/09/18 22:09:46;;;;;;;5.65;2.75;;;;;;;;;;5014981;28;20022;-86
2023/09/18 22:12:12;;;;;;;6.10;3.08;;;;;;;;;;5015244;28;20123;-86
2023/09/18 22:14:38;;;;;;;6.10;4.10;;;;;;;;;;5013692;28;20387;-86
2023/09/18 22:17:04;;;;;;;6.00;3.95;;;;;;;;;;5015249;28;20026;-86
2023/09/18 22:19:29;;;;;;;5.15;3.40;;;;;;;;;;5015107;28;20029;-86
2023/09/18 22:21:55;;;;;;;7.50;3.80;;;;;;;;;;5015083;28;20026;-86
2023/09/18 22:24:21;;;;;;;6.38;4.25;;;;;;;;;;5014777;28;20018;-85
2023/09/18 22:26:46;;;;;;;8.02;4.43;;;;;;;;;;5014642;28;20037;-86
2023/09/18 22:29:14;;;;;;;4.72;3.70;;;;;;;;;;5014740;28;20026;-87
2023/09/18 22:31:41;;;;;;;4.40;3.38;;;;;;;;;;5015177;28;20056;-85
2023/09/18 22:34:08;;;;;;;5.05;3.42;;;;;;;;;;5014787;28;20109;-85
2023/09/18 22:36:35;;;;;;;4.53;2.83;;;;;;;;;;5014760;28;20365;-85
2023/09/18 22:39:47;;;;;;;4.53;2.67;;;;;;;;;;5014696;28;20021;-85
2023/09/18 22:42:13;;;;;;;5.78;2.83;;;;;;;;;;4973402;28;20027;-86
2023/09/18 22:45:16;;;;;;;3.65;2.50;;;;;;;;;;4973553;28;20039;-86
2023/09/18 22:48:19;;;;;;;4.97;2.45;;;;;;;;;;4973240;28;20052;-86
2023/09/18 22:51:21;;;;;;;4.45;2.72;;;;;;;;;;4973464;28;20093;-85
2023/09/18 22:53:47;;;;;;;3.33;2.40;;;;;;;;;;4973200;28;20034;-85
2023/09/18 22:56:16;;;;;;;4.35;2.65;;;;;;;;;;4973132;28;20090;-85
2023/09/18 22:58:46;;;;;;;5.53;2.97;;;;;;;;;;4973484;28;20565;-86
2023/09/18 23:01:15;;;;;;;4.60;2.85;;;;;;;;;;4973237;28;20038;-87
2023/09/18 23:03:42;;;;;;;4.07;2.97;;;;;;;;;;4972863;28;20420;-85
2023/09/18 23:06:08;;;;;;;4.68;3.08;;;;;;;;;;4973003;28;20489;-85
2023/09/18 23:08:33;;;;;;;4.90;2.80;;;;;;;;;;4973177;28;20093;-84
2023/09/18 23:11:04;;;;;;;7.38;3.13;;;;;;;;;;4973036;28;20058;-86
2023/09/18 23:13:31;;;;;;;5.20;2.95;;;;;;;;;;4972882;28;20093;-84
2023/09/18 23:15:58;;;;;;;3.75;2.88;;;;;;;;;;4990190;28;20384;-85
2023/09/18 23:18:24;;;;;;;3.92;3.03;;;;;;;;;;5014095;28;20037;-84
2023/09/18 23:23:26;;;;;;;3.92;2.70;;;;;;;;;;5098437;22;20062;-90
2023/09/18 23:25:55;;;;;;;5.40;2.97;;;;;;;;;;5012716;28;20037;-89
